sensor_id;sensor_type;location;lat;lon;timestamp;P1;durP1;ratioP1;P2;durP2;ratioP2
52878;SDS011;38747;53.140;6.498;2023-04-01T00:02:25;8.38;;;3.88;;
52878;SDS011;38747;53.140;6.498;2023-04-01T00:04:51;8.67;;;4.00;;
52878;SDS011;38747;53.140;6.498;2023-04-01T00:07:16;7.50;;;3.95;;
52878;SDS011;38747;53.140;6.498;2023-04-01T00:09:42;8.27;;;4.10;;
52878;SDS011;38747;53.140;6.498;2023-04-01T00:12:07;7.60;;;4.00;;
52878;SDS011;38747;53.140;6.498;2023-04-01T00:14:33;8.70;;;4.47;;
52878;SDS011;38747;53.140;6.498;2023-04-01T00:16:59;7.97;;;4.35;;
52878;SDS011;38747;53.140;6.498;2023-04-01T00:19:25;8.65;;;4.50;;
52878;SDS011;38747;53.140;6.498;2023-04-01T00:21:51;8.33;;;4.37;;
52878;SDS011;38747;53.140;6.498;2023-04-01T00:24:17;8.10;;;4.45;;
52878;SDS011;38747;53.140;6.498;2023-04-01T00:26:42;9.52;;;5.00;;
52878;SDS011;38747;53.140;6.498;2023-04-01T00:29:09;8.63;;;4.30;;
52878;SDS011;38747;53.140;6.498;2023-04-01T00:31:37;8.20;;;4.45;;
52878;SDS011;38747;53.140;6.498;2023-04-01T00:34:03;8.45;;;4.47;;
52878;SDS011;38747;53.140;6.498;2023-04-01T00:36:29;9.13;;;4.70;;
52878;SDS011;38747;53.140;6.498;2023-04-01T00:38:54;9.52;;;5.05;;
52878;SDS011;38747;53.140;6.498;2023-04-01T00:41:21;9.10;;;4.50;;
52878;SDS011;38747;53.140;6.498;2023-04-01T00:43:47;9.43;;;5.00;;
52878;SDS011;38747;53.140;6.498;2023-04-01T00:46:14;9.43;;;4.97;;
52878;SDS011;38747;53.140;6.498;2023-04-01T00:48:53;8.43;;;4.57;;
52878;SDS011;38747;53.140;6.498;2023-04-01T00:51:22;8.70;;;4.63;;
52878;SDS011;38747;53.140;6.498;2023-04-01T00:53:51;8.98;;;4.78;;
52878;SDS011;38747;53.140;6.498;2023-04-01T00:56:20;8.40;;;4.40;;
52878;SDS011;38747;53.140;6.498;2023-04-01T00:59:00;8.98;;;4.82;;
52878;SDS011;38747;53.140;6.498;2023-04-01T01:01:29;7.57;;;4.60;;
52878;SDS011;38747;53.140;6.498;2023-04-01T01:03:56;9.38;;;5.07;;
52878;SDS011;38747;53.140;6.498;2023-04-01T01:09:13;9.48;;;4.63;;
52878;SDS011;38747;53.140;6.498;2023-04-01T01:11:54;8.20;;;4.50;;
52878;SDS011;38747;53.140;6.498;2023-04-01T01:20:14;7.13;;;4.07;;
52878;SDS011;38747;53.140;6.498;2023-04-01T01:22:52;9.35;;;5.15;;
52878;SDS011;38747;53.140;6.498;2023-04-01T01:25:41;9.37;;;4.53;;
52878;SDS011;38747;53.140;6.498;2023-04-01T01:36:48;10.63;;;5.00;;
52878;SDS011;38747;53.140;6.498;2023-04-01T01:39:18;9.07;;;5.10;;
52878;SDS011;38747;53.140;6.498;2023-04-01T01:41:45;9.80;;;4.60;;
52878;SDS011;38747;53.140;6.498;2023-04-01T01:44:14;9.02;;;4.70;;
52878;SDS011;38747;53.140;6.498;2023-04-01T01:46:41;9.63;;;4.97;;
52878;SDS011;38747;53.140;6.498;2023-04-01T01:49:09;9.98;;;5.10;;
52878;SDS011;38747;53.140;6.498;2023-04-01T01:51:36;11.70;;;5.07;;
52878;SDS011;38747;53.140;6.498;2023-04-01T01:54:02;10.13;;;4.90;;
52878;SDS011;38747;53.140;6.498;2023-04-01T01:56:28;9.63;;;4.67;;
52878;SDS011;38747;53.140;6.498;2023-04-01T01:58:56;10.20;;;5.22;;
52878;SDS011;38747;53.140;6.498;2023-04-01T02:01:27;12.07;;;5.40;;
52878;SDS011;38747;53.140;6.498;2023-04-01T02:03:55;9.70;;;5.40;;
52878;SDS011;38747;53.140;6.498;2023-04-01T02:06:23;9.75;;;5.40;;
52878;SDS011;38747;53.140;6.498;2023-04-01T02:08:55;9.80;;;5.37;;
52878;SDS011;38747;53.140;6.498;2023-04-01T02:11:27;10.10;;;5.13;;
52878;SDS011;38747;53.140;6.498;2023-04-01T02:14:10;10.93;;;5.55;;
52878;SDS011;38747;53.140;6.498;2023-04-01T02:19:12;10.98;;;5.40;;
52878;SDS011;38747;53.140;6.498;2023-04-01T02:21:39;10.90;;;5.43;;
52878;SDS011;38747;53.140;6.498;2023-04-01T02:24:07;12.90;;;5.70;;
52878;SDS011;38747;53.140;6.498;2023-04-01T02:26:37;10.20;;;5.60;;
52878;SDS011;38747;53.140;6.498;2023-04-01T02:29:03;10.18;;;5.93;;
52878;SDS011;38747;53.140;6.498;2023-04-01T02:31:31;14.03;;;5.73;;
52878;SDS011;38747;53.140;6.498;2023-04-01T02:33:57;11.65;;;6.00;;
52878;SDS011;38747;53.140;6.498;2023-04-01T02:36:24;12.25;;;6.25;;
52878;SDS011;38747;53.140;6.498;2023-04-01T02:38:49;11.57;;;6.00;;
52878;SDS011;38747;53.140;6.498;2023-04-01T02:41:17;11.13;;;5.77;;
52878;SDS011;38747;53.140;6.498;2023-04-01T02:43:43;11.57;;;5.75;;
52878;SDS011;38747;53.140;6.498;2023-04-01T02:46:08;10.77;;;5.78;;
52878;SDS011;38747;53.140;6.498;2023-04-01T02:48:34;13.17;;;5.83;;
52878;SDS011;38747;53.140;6.498;2023-04-01T02:50:59;12.23;;;5.70;;
52878;SDS011;38747;53.140;6.498;2023-04-01T02:53:25;11.52;;;5.65;;
52878;SDS011;38747;53.140;6.498;2023-04-01T02:55:51;11.90;;;5.90;;
52878;SDS011;38747;53.140;6.498;2023-04-01T02:58:17;11.63;;;5.37;;
52878;SDS011;38747;53.140;6.498;2023-04-01T03:00:43;11.02;;;5.63;;
52878;SDS011;38747;53.140;6.498;2023-04-01T03:03:08;12.23;;;6.10;;
52878;SDS011;38747;53.140;6.498;2023-04-01T03:05:34;11.55;;;5.93;;
52878;SDS011;38747;53.140;6.498;2023-04-01T03:08:00;11.85;;;5.75;;
52878;SDS011;38747;53.140;6.498;2023-04-01T03:10:26;11.50;;;5.88;;
52878;SDS011;38747;53.140;6.498;2023-04-01T03:12:52;13.00;;;6.10;;
52878;SDS011;38747;53.140;6.498;2023-04-01T03:15:18;12.30;;;6.18;;
52878;SDS011;38747;53.140;6.498;2023-04-01T03:17:43;13.23;;;6.07;;
52878;SDS011;38747;53.140;6.498;2023-04-01T03:20:10;12.05;;;6.40;;
52878;SDS011;38747;53.140;6.498;2023-04-01T03:22:36;11.63;;;6.00;;
52878;SDS011;38747;53.140;6.498;2023-04-01T03:25:03;13.35;;;6.80;;
52878;SDS011;38747;53.140;6.498;2023-04-01T03:27:29;11.93;;;6.30;;
52878;SDS011;38747;53.140;6.498;2023-04-01T03:29:55;12.75;;;6.57;;
52878;SDS011;38747;53.140;6.498;2023-04-01T03:32:21;11.60;;;6.53;;
52878;SDS011;38747;53.140;6.498;2023-04-01T03:34:46;11.63;;;6.43;;
52878;SDS011;38747;53.140;6.498;2023-04-01T03:37:12;16.52;;;7.50;;
52878;SDS011;38747;53.140;6.498;2023-04-01T03:39:39;13.43;;;7.40;;
52878;SDS011;38747;53.140;6.498;2023-04-01T03:42:04;13.90;;;7.17;;
52878;SDS011;38747;53.140;6.498;2023-04-01T03:44:32;14.20;;;7.68;;
52878;SDS011;38747;53.140;6.498;2023-04-01T03:46:58;16.15;;;7.55;;
52878;SDS011;38747;53.140;6.498;2023-04-01T03:49:25;13.10;;;6.72;;
52878;SDS011;38747;53.140;6.498;2023-04-01T03:51:50;13.83;;;7.13;;
52878;SDS011;38747;53.140;6.498;2023-04-01T03:54:19;13.68;;;7.30;;
52878;SDS011;38747;53.140;6.498;2023-04-01T03:56:45;13.43;;;7.53;;
52878;SDS011;38747;53.140;6.498;2023-04-01T03:59:11;15.47;;;7.90;;
52878;SDS011;38747;53.140;6.498;2023-04-01T04:01:37;13.25;;;7.15;;
52878;SDS011;38747;53.140;6.498;2023-04-01T04:04:02;12.70;;;6.70;;
52878;SDS011;38747;53.140;6.498;2023-04-01T04:06:28;13.30;;;7.13;;
52878;SDS011;38747;53.140;6.498;2023-04-01T04:08:54;13.40;;;7.43;;
52878;SDS011;38747;53.140;6.498;2023-04-01T04:11:20;15.17;;;7.83;;
52878;SDS011;38747;53.140;6.498;2023-04-01T04:13:47;16.02;;;8.48;;
52878;SDS011;38747;53.140;6.498;2023-04-01T04:16:13;18.40;;;7.80;;
52878;SDS011;38747;53.140;6.498;2023-04-01T04:18:39;14.43;;;7.73;;
52878;SDS011;38747;53.140;6.498;2023-04-01T04:21:05;14.85;;;7.85;;
52878;SDS011;38747;53.140;6.498;2023-04-01T04:23:31;16.45;;;8.02;;
52878;SDS011;38747;53.140;6.498;2023-04-01T04:25:59;14.80;;;8.03;;
52878;SDS011;38747;53.140;6.498;2023-04-01T04:28:27;15.52;;;8.75;;
52878;SDS011;38747;53.140;6.498;2023-04-01T04:30:54;19.30;;;8.45;;
52878;SDS011;38747;53.140;6.498;2023-04-01T04:33:20;15.20;;;8.32;;
52878;SDS011;38747;53.140;6.498;2023-04-01T04:35:46;15.60;;;8.38;;
52878;SDS011;38747;53.140;6.498;2023-04-01T04:38:12;17.97;;;8.47;;
52878;SDS011;38747;53.140;6.498;2023-04-01T04:40:38;15.77;;;8.95;;
52878;SDS011;38747;53.140;6.498;2023-04-01T04:43:05;16.52;;;8.27;;
52878;SDS011;38747;53.140;6.498;2023-04-01T04:45:31;16.77;;;8.23;;
52878;SDS011;38747;53.140;6.498;2023-04-01T04:47:57;15.65;;;9.18;;
52878;SDS011;38747;53.140;6.498;2023-04-01T04:50:23;16.27;;;8.40;;
52878;SDS011;38747;53.140;6.498;2023-04-01T04:52:49;16.35;;;8.70;;
52878;SDS011;38747;53.140;6.498;2023-04-01T04:55:14;17.13;;;9.10;;
52878;SDS011;38747;53.140;6.498;2023-04-01T04:57:40;17.17;;;9.43;;
52878;SDS011;38747;53.140;6.498;2023-04-01T05:00:06;17.42;;;8.68;;
52878;SDS011;38747;53.140;6.498;2023-04-01T05:02:33;17.30;;;9.48;;
52878;SDS011;38747;53.140;6.498;2023-04-01T05:04:58;15.80;;;8.70;;
52878;SDS011;38747;53.140;6.498;2023-04-01T05:07:24;16.23;;;8.70;;
52878;SDS011;38747;53.140;6.498;2023-04-01T05:09:50;16.27;;;8.83;;
52878;SDS011;38747;53.140;6.498;2023-04-01T05:12:15;16.35;;;8.63;;
52878;SDS011;38747;53.140;6.498;2023-04-01T05:14:41;14.60;;;8.23;;
52878;SDS011;38747;53.140;6.498;2023-04-01T05:17:10;15.45;;;8.93;;
52878;SDS011;38747;53.140;6.498;2023-04-01T05:19:37;15.68;;;8.43;;
52878;SDS011;38747;53.140;6.498;2023-04-01T05:22:03;16.67;;;8.27;;
52878;SDS011;38747;53.140;6.498;2023-04-01T05:24:29;17.00;;;8.40;;
52878;SDS011;38747;53.140;6.498;2023-04-01T05:26:55;14.38;;;7.53;;
52878;SDS011;38747;53.140;6.498;2023-04-01T05:29:22;14.73;;;7.10;;
52878;SDS011;38747;53.140;6.498;2023-04-01T05:31:48;14.48;;;7.50;;
52878;SDS011;38747;53.140;6.498;2023-04-01T05:34:14;14.37;;;7.50;;
52878;SDS011;38747;53.140;6.498;2023-04-01T05:36:39;15.82;;;7.85;;
52878;SDS011;38747;53.140;6.498;2023-04-01T05:39:07;15.87;;;7.47;;
52878;SDS011;38747;53.140;6.498;2023-04-01T05:41:36;15.85;;;7.10;;
52878;SDS011;38747;53.140;6.498;2023-04-01T05:44:03;14.75;;;7.07;;
52878;SDS011;38747;53.140;6.498;2023-04-01T05:46:29;14.02;;;6.80;;
52878;SDS011;38747;53.140;6.498;2023-04-01T05:48:55;14.13;;;6.82;;
52878;SDS011;38747;53.140;6.498;2023-04-01T05:51:21;16.30;;;7.20;;
52878;SDS011;38747;53.140;6.498;2023-04-01T05:53:47;14.52;;;6.70;;
52878;SDS011;38747;53.140;6.498;2023-04-01T05:56:13;14.60;;;6.67;;
52878;SDS011;38747;53.140;6.498;2023-04-01T05:58:38;13.77;;;6.28;;
52878;SDS011;38747;53.140;6.498;2023-04-01T06:01:09;13.23;;;5.80;;
52878;SDS011;38747;53.140;6.498;2023-04-01T06:03:35;13.02;;;5.50;;
52878;SDS011;38747;53.140;6.498;2023-04-01T06:06:01;15.18;;;5.85;;
52878;SDS011;38747;53.140;6.498;2023-04-01T06:08:28;13.63;;;5.90;;
52878;SDS011;38747;53.140;6.498;2023-04-01T06:14:01;15.13;;;7.10;;
52878;SDS011;38747;53.140;6.498;2023-04-01T06:16:44;14.57;;;6.50;;
52878;SDS011;38747;53.140;6.498;2023-04-01T06:20:11;14.45;;;6.85;;
52878;SDS011;38747;53.140;6.498;2023-04-01T06:31:20;13.32;;;6.43;;
52878;SDS011;38747;53.140;6.498;2023-04-01T06:39:34;14.60;;;6.85;;
52878;SDS011;38747;53.140;6.498;2023-04-01T06:57:43;19.03;;;9.67;;
52878;SDS011;38747;53.140;6.498;2023-04-01T07:00:19;21.40;;;10.82;;
52878;SDS011;38747;53.140;6.498;2023-04-01T07:05:41;21.42;;;10.38;;
52878;SDS011;38747;53.140;6.498;2023-04-01T07:08:16;20.75;;;10.73;;
52878;SDS011;38747;53.140;6.498;2023-04-01T07:10:58;22.20;;;11.00;;
52878;SDS011;38747;53.140;6.498;2023-04-01T07:13:34;23.42;;;10.30;;
52878;SDS011;38747;53.140;6.498;2023-04-01T07:16:16;22.30;;;10.80;;
52878;SDS011;38747;53.140;6.498;2023-04-01T07:21:53;21.42;;;11.05;;
52878;SDS011;38747;53.140;6.498;2023-04-01T07:24:31;22.27;;;10.77;;
52878;SDS011;38747;53.140;6.498;2023-04-01T07:27:00;22.30;;;10.57;;
52878;SDS011;38747;53.140;6.498;2023-04-01T07:29:26;22.42;;;11.55;;
52878;SDS011;38747;53.140;6.498;2023-04-01T07:34:49;22.57;;;11.17;;
52878;SDS011;38747;53.140;6.498;2023-04-01T07:43:01;23.48;;;11.30;;
52878;SDS011;38747;53.140;6.498;2023-04-01T07:46:12;22.23;;;10.98;;
52878;SDS011;38747;53.140;6.498;2023-04-01T07:49:05;23.53;;;11.07;;
52878;SDS011;38747;53.140;6.498;2023-04-01T07:54:57;22.70;;;10.95;;
52878;SDS011;38747;53.140;6.498;2023-04-01T07:57:43;22.67;;;11.50;;
52878;SDS011;38747;53.140;6.498;2023-04-01T08:03:16;22.17;;;11.23;;
52878;SDS011;38747;53.140;6.498;2023-04-01T08:05:55;20.77;;;10.20;;
52878;SDS011;38747;53.140;6.498;2023-04-01T08:21:52;20.70;;;10.13;;
52878;SDS011;38747;53.140;6.498;2023-04-01T08:24:40;20.70;;;9.38;;
52878;SDS011;38747;53.140;6.498;2023-04-01T08:27:16;24.40;;;10.60;;
52878;SDS011;38747;53.140;6.498;2023-04-01T08:29:49;19.80;;;10.50;;
52878;SDS011;38747;53.140;6.498;2023-04-01T08:32:37;21.45;;;9.63;;
52878;SDS011;38747;53.140;6.498;2023-04-01T08:35:26;18.35;;;9.30;;
52878;SDS011;38747;53.140;6.498;2023-04-01T08:38:05;19.08;;;8.98;;
52878;SDS011;38747;53.140;6.498;2023-04-01T08:46:41;17.90;;;8.55;;
52878;SDS011;38747;53.140;6.498;2023-04-01T08:54:45;15.23;;;7.82;;
52878;SDS011;38747;53.140;6.498;2023-04-01T09:11:26;15.47;;;8.37;;
52878;SDS011;38747;53.140;6.498;2023-04-01T09:14:19;15.10;;;7.72;;
52878;SDS011;38747;53.140;6.498;2023-04-01T09:17:14;14.18;;;7.50;;
52878;SDS011;38747;53.140;6.498;2023-04-01T09:22:50;13.55;;;7.22;;
52878;SDS011;38747;53.140;6.498;2023-04-01T09:25:57;11.73;;;5.70;;
52878;SDS011;38747;53.140;6.498;2023-04-01T09:28:28;9.18;;;5.05;;
52878;SDS011;38747;53.140;6.498;2023-04-01T09:37:13;9.15;;;4.65;;
52878;SDS011;38747;53.140;6.498;2023-04-01T09:39:47;8.67;;;3.80;;
52878;SDS011;38747;53.140;6.498;2023-04-01T09:56:59;6.95;;;3.28;;
52878;SDS011;38747;53.140;6.498;2023-04-01T10:10:43;6.75;;;3.33;;
52878;SDS011;38747;53.140;6.498;2023-04-01T10:16:11;6.38;;;2.90;;
52878;SDS011;38747;53.140;6.498;2023-04-01T10:19:15;6.28;;;3.33;;
52878;SDS011;38747;53.140;6.498;2023-04-01T10:24:39;6.15;;;3.00;;
52878;SDS011;38747;53.140;6.498;2023-04-01T10:36:11;5.73;;;3.17;;
52878;SDS011;38747;53.140;6.498;2023-04-01T10:41:49;11.10;;;2.50;;
52878;SDS011;38747;53.140;6.498;2023-04-01T10:44:48;5.57;;;2.78;;
52878;SDS011;38747;53.140;6.498;2023-04-01T10:50:59;5.10;;;2.70;;
52878;SDS011;38747;53.140;6.498;2023-04-01T11:33:21;5.60;;;2.47;;
52878;SDS011;38747;53.140;6.498;2023-04-01T11:36:34;5.18;;;2.63;;
52878;SDS011;38747;53.140;6.498;2023-04-01T11:41:42;5.80;;;2.80;;
52878;SDS011;38747;53.140;6.498;2023-04-01T11:44:25;5.90;;;2.83;;
52878;SDS011;38747;53.140;6.498;2023-04-01T11:47:03;5.87;;;2.67;;
52878;SDS011;38747;53.140;6.498;2023-04-01T11:49:55;5.70;;;2.80;;
52878;SDS011;38747;53.140;6.498;2023-04-01T11:58:31;6.18;;;3.30;;
52878;SDS011;38747;53.140;6.498;2023-04-01T12:01:16;6.00;;;3.03;;
52878;SDS011;38747;53.140;6.498;2023-04-01T12:04:18;6.43;;;3.70;;
52878;SDS011;38747;53.140;6.498;2023-04-01T12:09:52;4.60;;;2.00;;
52878;SDS011;38747;53.140;6.498;2023-04-01T12:13:02;5.32;;;3.10;;
52878;SDS011;38747;53.140;6.498;2023-04-01T12:18:38;5.47;;;2.83;;
52878;SDS011;38747;53.140;6.498;2023-04-01T12:21:14;5.25;;;2.70;;
52878;SDS011;38747;53.140;6.498;2023-04-01T12:29:49;5.70;;;2.70;;
52878;SDS011;38747;53.140;6.498;2023-04-01T12:37:48;4.93;;;2.40;;
52878;SDS011;38747;53.140;6.498;2023-04-01T12:40:32;6.28;;;2.22;;
52878;SDS011;38747;53.140;6.498;2023-04-01T12:43:16;4.73;;;2.20;;
52878;SDS011;38747;53.140;6.498;2023-04-01T12:46:03;4.65;;;2.30;;
52878;SDS011;38747;53.140;6.498;2023-04-01T12:56:39;6.27;;;2.90;;
52878;SDS011;38747;53.140;6.498;2023-04-01T13:11:49;5.33;;;2.70;;
52878;SDS011;38747;53.140;6.498;2023-04-01T13:14:44;7.45;;;2.97;;
52878;SDS011;38747;53.140;6.498;2023-04-01T13:20:30;4.97;;;2.55;;
52878;SDS011;38747;53.140;6.498;2023-04-01T13:23:17;5.40;;;2.63;;
52878;SDS011;38747;53.140;6.498;2023-04-01T13:28:50;5.95;;;2.80;;
52878;SDS011;38747;53.140;6.498;2023-04-01T13:31:24;5.68;;;3.03;;
52878;SDS011;38747;53.140;6.498;2023-04-01T13:42:23;5.47;;;2.60;;
52878;SDS011;38747;53.140;6.498;2023-04-01T13:44:55;5.38;;;2.20;;
52878;SDS011;38747;53.140;6.498;2023-04-01T13:47:49;4.78;;;2.15;;
52878;SDS011;38747;53.140;6.498;2023-04-01T13:50:46;4.30;;;1.83;;
52878;SDS011;38747;53.140;6.498;2023-04-01T14:09:59;4.63;;;1.90;;
52878;SDS011;38747;53.140;6.498;2023-04-01T14:12:39;4.30;;;2.00;;
52878;SDS011;38747;53.140;6.498;2023-04-01T14:15:40;3.80;;;1.70;;
52878;SDS011;38747;53.140;6.498;2023-04-01T14:18:33;3.50;;;1.70;;
52878;SDS011;38747;53.140;6.498;2023-04-01T14:23:50;4.82;;;1.90;;
52878;SDS011;38747;53.140;6.498;2023-04-01T14:26:38;4.20;;;1.97;;
52878;SDS011;38747;53.140;6.498;2023-04-01T14:32:18;4.25;;;2.17;;
52878;SDS011;38747;53.140;6.498;2023-04-01T14:43:47;5.65;;;1.83;;
52878;SDS011;38747;53.140;6.498;2023-04-01T14:51:48;4.43;;;1.73;;
52878;SDS011;38747;53.140;6.498;2023-04-01T14:54:16;3.67;;;1.67;;
52878;SDS011;38747;53.140;6.498;2023-04-01T14:56:51;5.25;;;1.80;;
52878;SDS011;38747;53.140;6.498;2023-04-01T14:59:27;4.00;;;1.67;;
52878;SDS011;38747;53.140;6.498;2023-04-01T15:13:10;3.88;;;1.73;;
52878;SDS011;38747;53.140;6.498;2023-04-01T15:21:16;5.27;;;1.77;;
52878;SDS011;38747;53.140;6.498;2023-04-01T15:23:56;4.70;;;2.00;;
52878;SDS011;38747;53.140;6.498;2023-04-01T15:26:32;5.45;;;1.65;;
52878;SDS011;38747;53.140;6.498;2023-04-01T15:42:55;4.93;;;2.00;;
52878;SDS011;38747;53.140;6.498;2023-04-01T15:48:43;7.30;;;2.60;;
52878;SDS011;38747;53.140;6.498;2023-04-01T15:59:26;5.72;;;2.00;;
52878;SDS011;38747;53.140;6.498;2023-04-01T16:02:34;6.40;;;2.50;;
52878;SDS011;38747;53.140;6.498;2023-04-01T16:13:54;6.45;;;2.58;;
52878;SDS011;38747;53.140;6.498;2023-04-01T16:16:52;6.65;;;2.58;;
52878;SDS011;38747;53.140;6.498;2023-04-01T16:19:28;5.63;;;2.20;;
52878;SDS011;38747;53.140;6.498;2023-04-01T16:27:46;6.32;;;2.47;;
52878;SDS011;38747;53.140;6.498;2023-04-01T16:30:46;6.13;;;2.53;;
52878;SDS011;38747;53.140;6.498;2023-04-01T16:36:28;5.90;;;2.47;;
52878;SDS011;38747;53.140;6.498;2023-04-01T16:41:37;8.43;;;3.65;;
52878;SDS011;38747;53.140;6.498;2023-04-01T16:46:52;7.93;;;3.42;;
52878;SDS011;38747;53.140;6.498;2023-04-01T16:52:54;8.83;;;3.20;;
52878;SDS011;38747;53.140;6.498;2023-04-01T16:58:27;7.22;;;3.33;;
52878;SDS011;38747;53.140;6.498;2023-04-01T17:01:14;7.72;;;3.10;;
52878;SDS011;38747;53.140;6.498;2023-04-01T17:03:49;7.25;;;3.17;;
52878;SDS011;38747;53.140;6.498;2023-04-01T17:09:13;8.15;;;3.03;;
52878;SDS011;38747;53.140;6.498;2023-04-01T17:23:01;8.32;;;3.58;;
52878;SDS011;38747;53.140;6.498;2023-04-01T17:33:44;7.17;;;3.20;;
52878;SDS011;38747;53.140;6.498;2023-04-01T17:36:42;8.93;;;4.00;;
52878;SDS011;38747;53.140;6.498;2023-04-01T17:42:14;9.23;;;3.75;;
52878;SDS011;38747;53.140;6.498;2023-04-01T17:44:48;8.02;;;4.00;;
52878;SDS011;38747;53.140;6.498;2023-04-01T17:53:14;7.43;;;3.50;;
52878;SDS011;38747;53.140;6.498;2023-04-01T17:58:20;8.93;;;3.65;;
52878;SDS011;38747;53.140;6.498;2023-04-01T18:11:58;6.45;;;3.05;;
52878;SDS011;38747;53.140;6.498;2023-04-01T18:17:21;7.63;;;3.13;;
52878;SDS011;38747;53.140;6.498;2023-04-01T18:25:21;6.63;;;2.97;;
52878;SDS011;38747;53.140;6.498;2023-04-01T18:28:11;7.60;;;3.47;;
52878;SDS011;38747;53.140;6.498;2023-04-01T18:31:18;9.05;;;4.32;;
52878;SDS011;38747;53.140;6.498;2023-04-01T18:36:47;10.27;;;3.63;;
52878;SDS011;38747;53.140;6.498;2023-04-01T18:39:37;9.10;;;3.50;;
52878;SDS011;38747;53.140;6.498;2023-04-01T18:42:20;8.75;;;3.78;;
52878;SDS011;38747;53.140;6.498;2023-04-01T18:48:06;8.38;;;3.60;;
52878;SDS011;38747;53.140;6.498;2023-04-01T18:50:56;9.43;;;4.47;;
52878;SDS011;38747;53.140;6.498;2023-04-01T18:53:31;8.93;;;4.30;;
52878;SDS011;38747;53.140;6.498;2023-04-01T18:56:26;9.50;;;4.35;;
52878;SDS011;38747;53.140;6.498;2023-04-01T18:59:04;13.40;;;4.75;;
52878;SDS011;38747;53.140;6.498;2023-04-01T19:02:03;9.95;;;4.53;;
52878;SDS011;38747;53.140;6.498;2023-04-01T19:04:37;10.17;;;4.40;;
52878;SDS011;38747;53.140;6.498;2023-04-01T19:26:42;11.50;;;4.63;;
52878;SDS011;38747;53.140;6.498;2023-04-01T19:29:26;11.25;;;4.97;;
52878;SDS011;38747;53.140;6.498;2023-04-01T19:32:18;9.87;;;4.73;;
52878;SDS011;38747;53.140;6.498;2023-04-01T19:37:38;10.75;;;4.57;;
52878;SDS011;38747;53.140;6.498;2023-04-01T19:40:21;12.38;;;4.60;;
52878;SDS011;38747;53.140;6.498;2023-04-01T19:48:11;12.82;;;4.95;;
52878;SDS011;38747;53.140;6.498;2023-04-01T19:51:06;12.27;;;4.75;;
52878;SDS011;38747;53.140;6.498;2023-04-01T19:56:33;11.68;;;4.85;;
52878;SDS011;38747;53.140;6.498;2023-04-01T19:59:18;12.20;;;5.00;;
52878;SDS011;38747;53.140;6.498;2023-04-01T20:04:49;11.18;;;4.75;;
52878;SDS011;38747;53.140;6.498;2023-04-01T20:07:33;9.43;;;4.45;;
52878;SDS011;38747;53.140;6.498;2023-04-01T20:10:09;9.48;;;4.38;;
52878;SDS011;38747;53.140;6.498;2023-04-01T20:15:55;9.93;;;4.32;;
52878;SDS011;38747;53.140;6.498;2023-04-01T20:18:41;11.85;;;4.82;;
52878;SDS011;38747;53.140;6.498;2023-04-01T20:21:35;9.65;;;3.88;;
52878;SDS011;38747;53.140;6.498;2023-04-01T20:24:15;11.63;;;4.40;;
52878;SDS011;38747;53.140;6.498;2023-04-01T20:26:50;10.10;;;4.20;;
52878;SDS011;38747;53.140;6.498;2023-04-01T20:29:35;9.43;;;4.05;;
52878;SDS011;38747;53.140;6.498;2023-04-01T20:41:06;7.27;;;3.80;;
52878;SDS011;38747;53.140;6.498;2023-04-01T20:51:51;7.20;;;3.40;;
52878;SDS011;38747;53.140;6.498;2023-04-01T20:57:38;9.27;;;3.80;;
52878;SDS011;38747;53.140;6.498;2023-04-01T21:20:16;9.25;;;3.42;;
52878;SDS011;38747;53.140;6.498;2023-04-01T21:23:21;7.80;;;3.30;;
52878;SDS011;38747;53.140;6.498;2023-04-01T21:26:02;8.40;;;3.53;;
52878;SDS011;38747;53.140;6.498;2023-04-01T21:48:08;12.45;;;3.58;;
52878;SDS011;38747;53.140;6.498;2023-04-01T22:05:50;8.83;;;3.70;;
52878;SDS011;38747;53.140;6.498;2023-04-01T22:11:04;9.18;;;3.50;;
52878;SDS011;38747;53.140;6.498;2023-04-01T22:13:50;11.68;;;3.30;;
52878;SDS011;38747;53.140;6.498;2023-04-01T22:24:29;9.33;;;3.00;;
52878;SDS011;38747;53.140;6.498;2023-04-01T22:29:58;10.00;;;3.10;;
52878;SDS011;38747;53.140;6.498;2023-04-01T22:32:59;9.05;;;3.20;;
52878;SDS011;38747;53.140;6.498;2023-04-01T22:41:52;7.30;;;2.70;;
52878;SDS011;38747;53.140;6.498;2023-04-01T22:44:24;8.15;;;3.38;;
52878;SDS011;38747;53.140;6.498;2023-04-01T22:47:07;7.90;;;2.67;;
52878;SDS011;38747;53.140;6.498;2023-04-01T22:49:54;7.50;;;2.70;;
52878;SDS011;38747;53.140;6.498;2023-04-01T22:52:33;6.07;;;2.60;;
52878;SDS011;38747;53.140;6.498;2023-04-01T22:55:38;7.50;;;2.70;;
52878;SDS011;38747;53.140;6.498;2023-04-01T22:57:59;6.70;;;2.67;;
52878;SDS011;38747;53.140;6.498;2023-04-01T23:00:37;7.32;;;3.00;;
52878;SDS011;38747;53.140;6.498;2023-04-01T23:03:13;8.05;;;3.35;;
52878;SDS011;38747;53.140;6.498;2023-04-01T23:06:01;8.83;;;3.17;;
52878;SDS011;38747;53.140;6.498;2023-04-01T23:11:30;7.30;;;3.25;;
52878;SDS011;38747;53.140;6.498;2023-04-01T23:16:53;9.48;;;3.10;;
52878;SDS011;38747;53.140;6.498;2023-04-01T23:19:41;9.00;;;3.00;;
52878;SDS011;38747;53.140;6.498;2023-04-01T23:33:49;7.60;;;3.00;;
52878;SDS011;38747;53.140;6.498;2023-04-01T23:35:57;12.43;;;3.40;;
52878;SDS011;38747;53.140;6.498;2023-04-01T23:38:34;7.90;;;3.30;;
52878;SDS011;38747;53.140;6.498;2023-04-01T23:41:02;11.57;;;3.80;;
52878;SDS011;38747;53.140;6.498;2023-04-01T23:43:32;7.40;;;2.72;;
52878;SDS011;38747;53.140;6.498;2023-04-01T23:46:05;8.80;;;3.05;;
52878;SDS011;38747;53.140;6.498;2023-04-01T23:48:33;8.05;;;3.22;;
52878;SDS011;38747;53.140;6.498;2023-04-01T23:51:20;9.70;;;3.08;;
52878;SDS011;38747;53.140;6.498;2023-04-01T23:54:03;6.40;;;2.77;;
52878;SDS011;38747;53.140;6.498;2023-04-01T23:56:46;7.40;;;2.60;;
52878;SDS011;38747;53.140;6.498;2023-04-01T23:59:49;7.10;;;2.70;;
